Welcome to our Virtual Airline
Sign-in:

Flight MFC48961

  • Submitted By: Karl-Heinz Klotz
  • Departure Airport: Horsfeld (4Z5)
  • Arrival Airport: Glacier Creek (KGZ)
  • Aircraft: C185F (N015MM)
  • Flight Time: 00.57.04
  • Date Submitted: 2019/05/15
  • Route: STOP AT ROCK LAKE CABIN (RKLK) AND SKOLIA LAKE CABIN (SKOL
  • Status: Accepted
Flight Details
Gross Revenue:
(3 load / $ 94.00 per unit
$ 282.00
Fuel Cost:
(27.6691 fuel used @ 5.1 / unit)
$ 141.11

Additional Log Information:

View Log

FS[18:29] ----- Flight Opened -----
FS[18:29] Cigar Box - 1.1.4.0
FS[18:29] FS: Prepar3D V4
FS[18:29] FSUIPC: v5,15
FS[18:29] Flight Number: MFC48961
FS[18:29] FS Aircraft: C185F SKYWAGON AMPHIBIAN
FS[18:29] FS Model: C185
FS[18:29] FS Type: Cessna
FS[18:29] Departure: 4Z5
FS[18:29] Arrival: KGZ
FS[18:29] Flight Level: 8500
FS[18:29] Flight Type: H
FS[18:29] Passengers: 3
FS[18:29] FOB: 197 lbs
FS[18:29] Gate: n/a
FS[18:29] NOTE: Parking Brake Ignored
FS[18:29] Crash Detection: Disabled
FS[18:29] Engines: 1 Piston
FS[18:29] NOTE: Boarding has started
FS[18:29] Autopilot: Engaged
FS[18:29] AGL: 3 ft
FS[18:29] AMSL: 3615 ft
FS[18:29] Engine 1: Started
FS[18:29] Light Data: Navigation ON
FS[18:29] Light Data: Beacon ON
FS[18:29] Light Data: Strobe lights ON
FS[18:29] Main Door Closed
FS[18:29] COM1: 121.05
FS[18:29] COM2: 127.80
FS[18:29] Transponder: 1200
FS[18:29] NAV1: 115.90
FS[18:29] NAV2: 110.60
FS[18:29] ADF1: 396.0
FS[18:29] ADF2: 240.0
FS[18:29] Navigation Mode: NAV
FS[18:29] NOTE: Taxi started
FS[18:29] Flaps: Position 1
FS[18:29] Flaps: Position 2
FS[18:29] NOTE: ----- TAKE OFF -----
FS[18:29] GS: 33 knots
FS[18:29] TAS: 34 knots
FS[18:29] IAS: 32 knots
FS[18:29] VS: 9 fpm
FS[18:29] FOB: 196 lbs
FS[18:29] Heading: 47°
FS[18:29] Pitch: 1°
FS[18:29] Bank: 0°
FS[18:29] Aircraft Weight: 2641,90 lbs
FS[18:29] Nearest Airport: 4Z5
FS[18:29] Distance: 0,24 miles
FS[18:29] Runway: ???
FS[18:29] Ground Surface: Forest
FS[18:29] Ground Condition: Normal
FS[18:29] NOTE: Weather Report
FS[18:29] Wind Heading: 341°
FS[18:29] Wind Speed: 0 knots
FS[18:29] OAT: 7° C
FS[18:29] TAT: 8° C
FS[18:29] Precipitation: None
FS[18:29] Dew Point: -2° C
FS[18:29] Visibility: 62 miles
FS[18:29] METAR: No METAR available for 4Z5.
FS[18:29] Flaps: Position 3
FS[18:29] NOTE: Climb started
FS[18:30] Landing Gear: Retracted
FS[18:30] GS: 60 knots
FS[18:30] TAS: 61 knots
FS[18:30] IAS: 58 knots
FS[18:30] VS: 482 fpm
FS[18:30] AGL: 20 ft
FS[18:30] AMSL: 3622 ft
FS[18:30] Flaps: Position 2
FS[18:30] GS: 66 knots
FS[18:30] TAS: 67 knots
FS[18:30] IAS: 63 knots
FS[18:30] VS: 460 fpm
FS[18:30] Flaps: Position 1
FS[18:30] GS: 73 knots
FS[18:30] TAS: 74 knots
FS[18:30] IAS: 70 knots
FS[18:30] VS: 682 fpm
FS[18:30] Flaps: Position 0
FS[18:30] GS: 89 knots
FS[18:30] TAS: 89 knots
FS[18:30] IAS: 84 knots
FS[18:30] VS: 348 fpm
FS[18:30] View Mode: Virtual Cockpit
FS[18:30] Autopilot: Disengaged
FS[18:30] AGL: 433 ft
FS[18:30] AMSL: 3979 ft
FS[18:30] Autopilot: Engaged
FS[18:30] AGL: 456 ft
FS[18:30] AMSL: 3989 ft
FS[18:37] Recovery: Flight Saved
FS[18:43] Recovery: Flight Saved
FS[18:46] Flaps: Position 1
FS[18:46] GS: 106 knots
FS[18:46] TAS: 107 knots
FS[18:46] IAS: 99 knots
FS[18:46] VS: -563 fpm
FS[18:46] Flaps: Position 2
FS[18:46] GS: 89 knots
FS[18:46] TAS: 91 knots
FS[18:46] IAS: 84 knots
FS[18:46] VS: -848 fpm
FS[18:47] Flaps: Position 3
FS[18:47] GS: 75 knots
FS[18:47] TAS: 77 knots
FS[18:47] IAS: 72 knots
FS[18:47] VS: -1119 fpm
FS[18:47] Flaps: Position 4
FS[18:47] GS: 68 knots
FS[18:47] TAS: 69 knots
FS[18:47] IAS: 65 knots
FS[18:47] VS: -1066 fpm
FS[18:48] NOTE: ----- LANDED -----
FS[18:48] Landing Rate: -11,53 fpm
FS[18:48] GS: 52 knots
FS[18:48] TAS: 52 knots
FS[18:48] IAS: 49 knots
FS[18:48] VS: -11 fpm
FS[18:48] FOB: 176 lbs
FS[18:48] Heading: 254°
FS[18:48] Pitch: 5°
FS[18:48] Bank: 0°
FS[18:48] Aircraft Weight: 2622,16 lbs
FS[18:48] Nearest Airport: RKLK
FS[18:48] Distance: 1,30 miles
FS[18:48] Runway: ???
FS[18:48] Ground Surface: Water
FS[18:48] Ground Condition: Normal
FS[18:48] NOTE: Weather Report
FS[18:48] Wind Heading: 341°
FS[18:48] Wind Speed: 0 knots
FS[18:48] OAT: 7° C
FS[18:48] TAT: 8° C
FS[18:48] Precipitation: None
FS[18:48] Dew Point: -2° C
FS[18:48] Visibility: 62 miles
FS[18:48] METAR: KGZH 151453Z AUTO VRB03KT 10SM CLR 23/12 A3009 RMK AO2 SLP185 T02330117 50009KGZL 151515Z AUTO 24007KT 10SM CLR 25/16 A3002 RMK AO2KGZN 151500Z AUTO 22007KT 10SM CLR 23/18 A3008 RMK AO2KGZS 151515Z AUTO 00000KT 3SM BR BKN033 OVC044 14/13 A3011 RMK A01
FS[18:48] View Mode: Virtual Cockpit
FS[18:48] Flaps: Position 2
FS[18:48] Flaps: Position 1
FS[18:48] Flaps: Position 0
FS[18:48] NOTE: Taxi started
FS[18:49] Autopilot: Disengaged
FS[18:49] AGL: 193 ft
FS[18:49] AMSL: 3772 ft
FS[18:49] View Mode: Virtual Cockpit
FS[18:49] Autopilot: Engaged
FS[18:49] AGL: 226 ft
FS[18:49] AMSL: 3805 ft
FS[18:54] Recovery: Flight Saved
FS[18:57] FS: Paused
FS[18:57] FS: Unpaused
FS[19:03] Autopilot: Disengaged
FS[19:03] AGL: 551 ft
FS[19:03] AMSL: 5603 ft
FS[19:04] Flaps: Position 1
FS[19:04] GS: 101 knots
FS[19:04] TAS: 101 knots
FS[19:04] IAS: 94 knots
FS[19:04] VS: -512 fpm
FS[19:04] Flaps: Position 2
FS[19:04] GS: 81 knots
FS[19:04] TAS: 83 knots
FS[19:04] IAS: 77 knots
FS[19:04] VS: -407 fpm
FS[19:05] Flaps: Position 3
FS[19:05] GS: 69 knots
FS[19:05] TAS: 70 knots
FS[19:05] IAS: 65 knots
FS[19:05] VS: -766 fpm
FS[19:05] Flaps: Position 4
FS[19:05] GS: 66 knots
FS[19:05] TAS: 67 knots
FS[19:05] IAS: 63 knots
FS[19:05] VS: -487 fpm
FS[19:06] Landing Gear: Extended
FS[19:06] GS: 58 knots
FS[19:06] TAS: 58 knots
FS[19:06] IAS: 54 knots
FS[19:06] VS: -302 fpm
FS[19:06] AGL: 46 ft
FS[19:06] AMSL: 4475 ft
FS[19:06] NOTE: ----- LANDED -----
FS[19:06] Landing Rate: -60,75 fpm
FS[19:06] GS: 56 knots
FS[19:06] TAS: 57 knots
FS[19:06] IAS: 54 knots
FS[19:06] VS: -56 fpm
FS[19:06] FOB: 156 lbs
FS[19:06] Heading: 300°
FS[19:06] Pitch: 1°
FS[19:06] Bank: 0°
FS[19:06] Aircraft Weight: 2602,23 lbs
FS[19:06] Nearest Airport: SKOL
FS[19:06] Distance: 0,34 miles
FS[19:06] Runway: ???
FS[19:06] Ground Surface: Grass Bumpy
FS[19:06] Ground Condition: Normal
FS[19:06] NOTE: Weather Report
FS[19:06] Wind Heading: 341°
FS[19:06] Wind Speed: 0 knots
FS[19:06] OAT: 6° C
FS[19:06] TAT: 6° C
FS[19:06] Precipitation: None
FS[19:06] Dew Point: -3° C
FS[19:06] Visibility: 62 miles
FS[19:06] METAR: KGZH 151453Z AUTO VRB03KT 10SM CLR 23/12 A3009 RMK AO2 SLP185 T02330117 50009KGZL 151515Z AUTO 24007KT 10SM CLR 25/16 A3002 RMK AO2KGZN 151500Z AUTO 22007KT 10SM CLR 23/18 A3008 RMK AO2KGZS 151515Z AUTO 00000KT 3SM BR BKN033 OVC044 14/13 A3011 RMK A01
FS[19:06] View Mode: Virtual Cockpit
FS[19:07] Flaps: Position 3
FS[19:07] Flaps: Position 2
FS[19:07] Flaps: Position 0
FS[19:07] Landing Gear: Retracted
FS[19:07] GS: 93 knots
FS[19:07] TAS: 94 knots
FS[19:07] IAS: 88 knots
FS[19:07] VS: 356 fpm
FS[19:07] AGL: 19 ft
FS[19:07] AMSL: 4461 ft
FS[19:07] View Mode: Virtual Cockpit
FS[19:08] Autopilot: Engaged
FS[19:08] AGL: 626 ft
FS[19:08] AMSL: 5042 ft
FS[19:11] Recovery: Flight Saved
FS[19:12] FS: Paused
FS[19:12] FS: Unpaused
FS[19:16] Recovery: Flight Saved
FS[19:22] Recovery: Flight Saved
FS[19:23] Flaps: Position 1
FS[19:23] GS: 103 knots
FS[19:23] TAS: 103 knots
FS[19:23] IAS: 97 knots
FS[19:23] VS: -938 fpm
FS[19:24] Landing Gear: Extended
FS[19:24] GS: 89 knots
FS[19:24] TAS: 90 knots
FS[19:24] IAS: 85 knots
FS[19:24] VS: -949 fpm
FS[19:24] AGL: 1221 ft
FS[19:24] AMSL: 3707 ft
FS[19:24] Flaps: Position 2
FS[19:24] GS: 89 knots
FS[19:24] TAS: 91 knots
FS[19:24] IAS: 87 knots
FS[19:24] VS: -928 fpm
FS[19:25] Flaps: Position 3
FS[19:25] GS: 73 knots
FS[19:25] TAS: 75 knots
FS[19:25] IAS: 72 knots
FS[19:25] VS: -831 fpm
FS[19:25] Flaps: Position 4
FS[19:25] GS: 68 knots
FS[19:25] TAS: 70 knots
FS[19:25] IAS: 67 knots
FS[19:25] VS: -737 fpm
FS[19:26] NOTE: ----- LANDED -----
FS[19:26] Landing Rate: 9,23 fpm
FS[19:26] GS: 48 knots
FS[19:26] TAS: 50 knots
FS[19:26] IAS: 48 knots
FS[19:26] VS: 9 fpm
FS[19:26] FOB: 136 lbs
FS[19:26] Heading: 118°
FS[19:26] Pitch: 7°
FS[19:26] Bank: 2°
FS[19:26] Aircraft Weight: 2581,52 lbs
FS[19:26] Nearest Airport: KGZ
FS[19:26] Distance: 0,10 miles
FS[19:26] Runway: ???
FS[19:26] Ground Surface: Urban
FS[19:26] Ground Condition: Normal
FS[19:26] NOTE: Weather Report
FS[19:26] Wind Heading: 341°
FS[19:26] Wind Speed: 0 knots
FS[19:26] OAT: 10° C
FS[19:26] TAT: 10° C
FS[19:26] Precipitation: None
FS[19:26] Dew Point: 0° C
FS[19:26] Visibility: 62 miles
FS[19:26] METAR: KGZH 151453Z AUTO VRB03KT 10SM CLR 23/12 A3009 RMK AO2 SLP185 T02330117 50009KGZL 151515Z AUTO 24007KT 10SM CLR 25/16 A3002 RMK AO2KGZN 151500Z AUTO 22007KT 10SM CLR 23/18 A3008 RMK AO2KGZS 151515Z AUTO 00000KT 3SM BR BKN033 OVC044 14/13 A3011 RMK A01
FS[19:26] View Mode: Virtual Cockpit
FS[19:26] Gate: n/a
FS[19:26] NOTE: Flight Completed
FS[19:26] FS Aircraft: C185F SKYWAGON AMPHIBIAN
FS[19:26] FS Model: C185
FS[19:26] FS Type: Cessna
FS[19:26] FOB: 136 lbs
FS[19:26] Fuel Used: 61 lbs
FS[19:26] Flight Time: 00:57:04
FS[19:26] Flight Time (Dawn): 00:00:00
FS[19:26] Flight Time (Day): 00:57:04
FS[19:26] Flight Time (Dusk): 00:00:00
FS[19:26] Flight Time (Night): 00:00:00
FS[19:26] Total Landings: 3
FS[19:26] MaxSim Rate: 0x
FS[19:26] Cigar Box - 1.1.4.0
FS[19:26] ----- Flight Closed -----

Route Map